sensor_id;sensor_type;location;lat;lon;timestamp;temperature;humidity
74661;SHT31;63191;39.566;2.654;2022-12-07T00:01:30;13.99;82.26
74661;SHT31;63191;39.566;2.654;2022-12-07T00:04:01;13.99;82.30
74661;SHT31;63191;39.566;2.654;2022-12-07T00:06:33;14.00;82.30
74661;SHT31;63191;39.566;2.654;2022-12-07T00:09:03;14.01;82.30
74661;SHT31;63191;39.566;2.654;2022-12-07T00:11:30;14.03;82.38
74661;SHT31;63191;39.566;2.654;2022-12-07T00:13:57;14.03;82.45
74661;SHT31;63191;39.566;2.654;2022-12-07T00:16:26;14.04;82.47
74661;SHT31;63191;39.566;2.654;2022-12-07T00:18:55;14.03;82.49
74661;SHT31;63191;39.566;2.654;2022-12-07T00:21:21;14.03;82.58
74661;SHT31;63191;39.566;2.654;2022-12-07T00:23:50;14.04;82.60
74661;SHT31;63191;39.566;2.654;2022-12-07T00:26:19;14.07;82.60
74661;SHT31;63191;39.566;2.654;2022-12-07T00:28:48;14.11;82.61
74661;SHT31;63191;39.566;2.654;2022-12-07T00:31:21;14.13;82.60
74661;SHT31;63191;39.566;2.654;2022-12-07T00:33:50;14.15;82.60
74661;SHT31;63191;39.566;2.654;2022-12-07T00:36:17;14.14;82.60
74661;SHT31;63191;39.566;2.654;2022-12-07T00:38:45;14.15;82.54
74661;SHT31;63191;39.566;2.654;2022-12-07T00:41:12;14.15;82.50
74661;SHT31;63191;39.566;2.654;2022-12-07T00:43:42;14.15;82.40
74661;SHT31;63191;39.566;2.654;2022-12-07T00:46:10;14.17;82.26
74661;SHT31;63191;39.566;2.654;2022-12-07T00:48:36;14.16;82.08
74661;SHT31;63191;39.566;2.654;2022-12-07T00:51:02;14.15;81.92
74661;SHT31;63191;39.566;2.654;2022-12-07T00:53:29;14.11;81.78
74661;SHT31;63191;39.566;2.654;2022-12-07T00:55:56;14.08;81.70
74661;SHT31;63191;39.566;2.654;2022-12-07T00:58:22;14.05;81.68
74661;SHT31;63191;39.566;2.654;2022-12-07T01:00:49;14.01;81.69
74661;SHT31;63191;39.566;2.654;2022-12-07T01:03:15;13.97;81.69
74661;SHT31;63191;39.566;2.654;2022-12-07T01:05:49;13.95;81.67
74661;SHT31;63191;39.566;2.654;2022-12-07T01:08:17;13.94;81.62
74661;SHT31;63191;39.566;2.654;2022-12-07T01:10:43;13.92;81.60
74661;SHT31;63191;39.566;2.654;2022-12-07T01:13:09;13.90;81.60
74661;SHT31;63191;39.566;2.654;2022-12-07T01:15:38;13.88;81.60
74661;SHT31;63191;39.566;2.654;2022-12-07T01:18:08;13.86;81.61
74661;SHT31;63191;39.566;2.654;2022-12-07T01:20:34;13.83;81.68
74661;SHT31;63191;39.566;2.654;2022-12-07T01:23:00;13.81;81.72
74661;SHT31;63191;39.566;2.654;2022-12-07T01:25:27;13.80;81.80
74661;SHT31;63191;39.566;2.654;2022-12-07T01:27:52;13.82;81.87
74661;SHT31;63191;39.566;2.654;2022-12-07T01:30:18;13.84;81.91
74661;SHT31;63191;39.566;2.654;2022-12-07T01:32:44;13.86;81.98
74661;SHT31;63191;39.566;2.654;2022-12-07T01:35:09;13.87;82.00
74661;SHT31;63191;39.566;2.654;2022-12-07T01:37:35;13.88;82.00
74661;SHT31;63191;39.566;2.654;2022-12-07T01:40:03;13.88;82.00
74661;SHT31;63191;39.566;2.654;2022-12-07T01:42:32;13.87;81.98
74661;SHT31;63191;39.566;2.654;2022-12-07T01:47:53;13.90;81.90
74661;SHT31;63191;39.566;2.654;2022-12-07T01:50:22;13.92;81.90
74661;SHT31;63191;39.566;2.654;2022-12-07T01:52:52;13.94;81.90
74661;SHT31;63191;39.566;2.654;2022-12-07T01:55:21;13.96;81.90
74661;SHT31;63191;39.566;2.654;2022-12-07T01:57:49;13.96;81.90
74661;SHT31;63191;39.566;2.654;2022-12-07T02:00:18;13.97;81.90
74661;SHT31;63191;39.566;2.654;2022-12-07T02:02:48;13.97;81.90
74661;SHT31;63191;39.566;2.654;2022-12-07T02:05:23;13.97;81.88
74661;SHT31;63191;39.566;2.654;2022-12-07T02:07:50;13.99;81.83
74661;SHT31;63191;39.566;2.654;2022-12-07T02:10:20;14.02;81.77
74661;SHT31;63191;39.566;2.654;2022-12-07T02:12:56;14.04;81.70
74661;SHT31;63191;39.566;2.654;2022-12-07T02:15:53;14.06;81.71
74661;SHT31;63191;39.566;2.654;2022-12-07T02:31:43;14.10;81.58
74661;SHT31;63191;39.566;2.654;2022-12-07T02:40:16;14.17;81.38
74661;SHT31;63191;39.566;2.654;2022-12-07T02:42:51;14.16;81.36
74661;SHT31;63191;39.566;2.654;2022-12-07T02:45:27;14.13;81.34
74661;SHT31;63191;39.566;2.654;2022-12-07T02:47:57;14.11;81.39
74661;SHT31;63191;39.566;2.654;2022-12-07T02:50:25;14.11;81.40
74661;SHT31;63191;39.566;2.654;2022-12-07T02:52:51;14.11;81.46
74661;SHT31;63191;39.566;2.654;2022-12-07T02:55:18;14.12;81.41
74661;SHT31;63191;39.566;2.654;2022-12-07T03:00:35;14.20;81.21
74661;SHT31;63191;39.566;2.654;2022-12-07T03:03:15;14.23;81.09
74661;SHT31;63191;39.566;2.654;2022-12-07T03:05:57;14.23;81.01
74661;SHT31;63191;39.566;2.654;2022-12-07T03:11:23;14.23;81.00
74661;SHT31;63191;39.566;2.654;2022-12-07T03:14:04;14.22;81.00
74661;SHT31;63191;39.566;2.654;2022-12-07T03:16:41;14.21;80.95
74661;SHT31;63191;39.566;2.654;2022-12-07T03:19:21;14.18;80.84
74661;SHT31;63191;39.566;2.654;2022-12-07T03:21:53;14.15;80.79
74661;SHT31;63191;39.566;2.654;2022-12-07T03:24:37;14.10;80.78
74661;SHT31;63191;39.566;2.654;2022-12-07T03:27:16;14.05;80.83
74661;SHT31;63191;39.566;2.654;2022-12-07T03:29:51;14.00;80.91
74661;SHT31;63191;39.566;2.654;2022-12-07T03:35:07;13.90;81.14
74661;SHT31;63191;39.566;2.654;2022-12-07T03:37:49;13.82;81.22
74661;SHT31;63191;39.566;2.654;2022-12-07T03:40:29;13.75;81.30
74661;SHT31;63191;39.566;2.654;2022-12-07T03:43:02;13.69;81.39
74661;SHT31;63191;39.566;2.654;2022-12-07T03:45:52;13.64;81.48
74661;SHT31;63191;39.566;2.654;2022-12-07T03:48:56;13.59;81.61
74661;SHT31;63191;39.566;2.654;2022-12-07T03:51:56;13.54;81.78
74661;SHT31;63191;39.566;2.654;2022-12-07T03:55:00;13.49;81.94
74661;SHT31;63191;39.566;2.654;2022-12-07T03:57:51;13.41;82.00
74661;SHT31;63191;39.566;2.654;2022-12-07T04:00:23;13.35;82.02
74661;SHT31;63191;39.566;2.654;2022-12-07T04:02:54;13.28;82.16
74661;SHT31;63191;39.566;2.654;2022-12-07T04:05:21;13.24;82.29
74661;SHT31;63191;39.566;2.654;2022-12-07T04:07:47;13.22;82.42
74661;SHT31;63191;39.566;2.654;2022-12-07T04:10:13;13.21;82.50
74661;SHT31;63191;39.566;2.654;2022-12-07T04:12:39;13.20;82.58
74661;SHT31;63191;39.566;2.654;2022-12-07T04:15:05;13.16;82.61
74661;SHT31;63191;39.566;2.654;2022-12-07T04:17:32;13.13;82.66
74661;SHT31;63191;39.566;2.654;2022-12-07T04:19:58;13.08;82.70
74661;SHT31;63191;39.566;2.654;2022-12-07T04:22:23;13.03;82.82
74661;SHT31;63191;39.566;2.654;2022-12-07T04:24:49;12.99;82.99
74661;SHT31;63191;39.566;2.654;2022-12-07T04:27:15;12.95;83.15
74661;SHT31;63191;39.566;2.654;2022-12-07T04:29:40;12.93;83.28
74661;SHT31;63191;39.566;2.654;2022-12-07T04:32:06;12.92;83.30
74661;SHT31;63191;39.566;2.654;2022-12-07T04:34:31;12.91;83.39
74661;SHT31;63191;39.566;2.654;2022-12-07T04:36:57;12.90;83.53
74661;SHT31;63191;39.566;2.654;2022-12-07T04:39:27;12.89;83.64
74661;SHT31;63191;39.566;2.654;2022-12-07T04:41:55;12.87;83.75
74661;SHT31;63191;39.566;2.654;2022-12-07T04:44:22;12.85;83.79
74661;SHT31;63191;39.566;2.654;2022-12-07T04:46:50;12.81;83.80
74661;SHT31;63191;39.566;2.654;2022-12-07T04:49:16;12.79;83.87
74661;SHT31;63191;39.566;2.654;2022-12-07T04:51:43;12.79;83.99
74661;SHT31;63191;39.566;2.654;2022-12-07T04:54:10;12.81;84.06
74661;SHT31;63191;39.566;2.654;2022-12-07T04:56:37;12.81;84.10
74661;SHT31;63191;39.566;2.654;2022-12-07T04:59:03;12.82;84.16
74661;SHT31;63191;39.566;2.654;2022-12-07T05:01:29;12.80;84.20
74661;SHT31;63191;39.566;2.654;2022-12-07T05:03:55;12.80;84.26
74661;SHT31;63191;39.566;2.654;2022-12-07T05:06:21;12.78;84.30
74661;SHT31;63191;39.566;2.654;2022-12-07T05:08:48;12.75;84.32
74661;SHT31;63191;39.566;2.654;2022-12-07T05:11:13;12.73;84.39
74661;SHT31;63191;39.566;2.654;2022-12-07T05:14:00;12.72;84.40
74661;SHT31;63191;39.566;2.654;2022-12-07T05:16:27;12.71;84.37
74661;SHT31;63191;39.566;2.654;2022-12-07T05:18:53;12.70;84.30
74661;SHT31;63191;39.566;2.654;2022-12-07T05:21:19;12.70;84.30
74661;SHT31;63191;39.566;2.654;2022-12-07T05:23:45;12.69;84.30
74661;SHT31;63191;39.566;2.654;2022-12-07T05:26:10;12.67;84.31
74661;SHT31;63191;39.566;2.654;2022-12-07T05:28:36;12.64;84.30
74661;SHT31;63191;39.566;2.654;2022-12-07T05:31:02;12.61;84.34
74661;SHT31;63191;39.566;2.654;2022-12-07T05:33:28;12.58;84.40
74661;SHT31;63191;39.566;2.654;2022-12-07T05:35:54;12.53;84.40
74661;SHT31;63191;39.566;2.654;2022-12-07T05:38:19;12.51;84.31
74661;SHT31;63191;39.566;2.654;2022-12-07T05:40:45;12.48;84.30
74661;SHT31;63191;39.566;2.654;2022-12-07T05:43:11;12.46;84.26
74661;SHT31;63191;39.566;2.654;2022-12-07T05:45:36;12.44;84.32
74661;SHT31;63191;39.566;2.654;2022-12-07T05:48:02;12.43;84.48
74661;SHT31;63191;39.566;2.654;2022-12-07T05:50:28;12.42;84.66
74661;SHT31;63191;39.566;2.654;2022-12-07T05:52:54;12.40;84.86
74661;SHT31;63191;39.566;2.654;2022-12-07T05:55:19;12.38;84.96
74661;SHT31;63191;39.566;2.654;2022-12-07T05:57:45;12.40;85.02
74661;SHT31;63191;39.566;2.654;2022-12-07T06:00:31;12.41;85.14
74661;SHT31;63191;39.566;2.654;2022-12-07T06:02:57;12.44;85.23
74661;SHT31;63191;39.566;2.654;2022-12-07T06:05:23;12.47;85.33
74661;SHT31;63191;39.566;2.654;2022-12-07T06:07:49;12.49;85.40
74661;SHT31;63191;39.566;2.654;2022-12-07T06:10:14;12.51;85.45
74661;SHT31;63191;39.566;2.654;2022-12-07T06:12:41;12.52;85.49
74661;SHT31;63191;39.566;2.654;2022-12-07T06:15:08;12.52;85.50
74661;SHT31;63191;39.566;2.654;2022-12-07T06:17:36;12.51;85.60
74661;SHT31;63191;39.566;2.654;2022-12-07T06:20:02;12.52;85.57
74661;SHT31;63191;39.566;2.654;2022-12-07T06:22:29;12.54;85.51
74661;SHT31;63191;39.566;2.654;2022-12-07T06:24:54;12.55;85.49
74661;SHT31;63191;39.566;2.654;2022-12-07T06:27:20;12.56;85.48
74661;SHT31;63191;39.566;2.654;2022-12-07T06:29:46;12.57;85.50
74661;SHT31;63191;39.566;2.654;2022-12-07T06:32:11;12.55;85.50
74661;SHT31;63191;39.566;2.654;2022-12-07T06:34:37;12.53;85.51
74661;SHT31;63191;39.566;2.654;2022-12-07T06:37:03;12.52;85.60
74661;SHT31;63191;39.566;2.654;2022-12-07T06:39:29;12.52;85.60
74661;SHT31;63191;39.566;2.654;2022-12-07T06:41:55;12.53;85.60
74661;SHT31;63191;39.566;2.654;2022-12-07T06:44:22;12.54;85.54
74661;SHT31;63191;39.566;2.654;2022-12-07T06:46:49;12.56;85.57
74661;SHT31;63191;39.566;2.654;2022-12-07T06:49:16;12.56;85.57
74661;SHT31;63191;39.566;2.654;2022-12-07T06:51:42;12.56;85.59
74661;SHT31;63191;39.566;2.654;2022-12-07T06:54:08;12.56;85.62
74661;SHT31;63191;39.566;2.654;2022-12-07T06:56:35;12.55;85.60
74661;SHT31;63191;39.566;2.654;2022-12-07T06:59:02;12.53;85.61
74661;SHT31;63191;39.566;2.654;2022-12-07T07:01:29;12.54;85.62
74661;SHT31;63191;39.566;2.654;2022-12-07T07:03:54;12.56;85.60
74661;SHT31;63191;39.566;2.654;2022-12-07T07:06:20;12.60;85.60
74661;SHT31;63191;39.566;2.654;2022-12-07T07:08:46;12.66;85.60
74661;SHT31;63191;39.566;2.654;2022-12-07T07:11:12;12.72;85.60
74661;SHT31;63191;39.566;2.654;2022-12-07T07:13:38;12.78;85.59
74661;SHT31;63191;39.566;2.654;2022-12-07T07:16:03;12.86;85.52
74661;SHT31;63191;39.566;2.654;2022-12-07T07:18:30;12.96;85.46
74661;SHT31;63191;39.566;2.654;2022-12-07T07:20:56;13.03;85.33
74661;SHT31;63191;39.566;2.654;2022-12-07T07:23:22;13.14;85.11
74661;SHT31;63191;39.566;2.654;2022-12-07T07:25:48;13.25;84.78
74661;SHT31;63191;39.566;2.654;2022-12-07T07:28:14;13.30;84.45
74661;SHT31;63191;39.566;2.654;2022-12-07T07:30:40;13.34;84.24
74661;SHT31;63191;39.566;2.654;2022-12-07T07:33:06;13.39;84.06
74661;SHT31;63191;39.566;2.654;2022-12-07T07:35:33;13.45;83.88
74661;SHT31;63191;39.566;2.654;2022-12-07T07:38:00;13.52;83.70
74661;SHT31;63191;39.566;2.654;2022-12-07T07:40:26;13.62;83.53
74661;SHT31;63191;39.566;2.654;2022-12-07T07:42:54;13.76;83.34
74661;SHT31;63191;39.566;2.654;2022-12-07T07:45:21;14.04;83.08
74661;SHT31;63191;39.566;2.654;2022-12-07T07:47:48;14.29;82.84
74661;SHT31;63191;39.566;2.654;2022-12-07T07:50:15;14.50;82.58
74661;SHT31;63191;39.566;2.654;2022-12-07T07:52:42;14.78;82.18
74661;SHT31;63191;39.566;2.654;2022-12-07T07:55:08;14.91;81.78
74661;SHT31;63191;39.566;2.654;2022-12-07T07:57:35;15.06;81.41
74661;SHT31;63191;39.566;2.654;2022-12-07T08:00:03;15.17;81.05
74661;SHT31;63191;39.566;2.654;2022-12-07T08:02:32;15.31;80.66
74661;SHT31;63191;39.566;2.654;2022-12-07T08:04:57;15.45;80.33
74661;SHT31;63191;39.566;2.654;2022-12-07T08:07:23;15.54;79.94
74661;SHT31;63191;39.566;2.654;2022-12-07T08:09:49;15.62;79.51
74661;SHT31;63191;39.566;2.654;2022-12-07T08:12:14;15.72;79.09
74661;SHT31;63191;39.566;2.654;2022-12-07T08:14:40;15.80;78.72
74661;SHT31;63191;39.566;2.654;2022-12-07T08:17:06;15.86;78.26
74661;SHT31;63191;39.566;2.654;2022-12-07T08:19:32;15.88;77.84
74661;SHT31;63191;39.566;2.654;2022-12-07T08:21:58;15.90;77.56
74661;SHT31;63191;39.566;2.654;2022-12-07T08:24:24;15.89;77.29
74661;SHT31;63191;39.566;2.654;2022-12-07T08:26:50;15.87;77.12
74661;SHT31;63191;39.566;2.654;2022-12-07T08:29:16;15.87;77.09
74661;SHT31;63191;39.566;2.654;2022-12-07T08:31:42;15.88;77.01
74661;SHT31;63191;39.566;2.654;2022-12-07T08:34:10;15.89;76.92
74661;SHT31;63191;39.566;2.654;2022-12-07T08:36:36;15.92;76.71
74661;SHT31;63191;39.566;2.654;2022-12-07T08:39:02;15.97;76.58
74661;SHT31;63191;39.566;2.654;2022-12-07T08:41:29;16.02;76.40
74661;SHT31;63191;39.566;2.654;2022-12-07T08:43:55;16.08;76.31
74661;SHT31;63191;39.566;2.654;2022-12-07T08:46:30;16.14;76.17
74661;SHT31;63191;39.566;2.654;2022-12-07T08:51:39;16.27;75.77
74661;SHT31;63191;39.566;2.654;2022-12-07T08:54:07;16.34;75.68
74661;SHT31;63191;39.566;2.654;2022-12-07T08:56:36;16.43;75.53
74661;SHT31;63191;39.566;2.654;2022-12-07T08:59:03;16.55;75.38
74661;SHT31;63191;39.566;2.654;2022-12-07T09:01:30;16.67;75.13
74661;SHT31;63191;39.566;2.654;2022-12-07T09:03:56;16.90;75.01
74661;SHT31;63191;39.566;2.654;2022-12-07T09:06:23;17.20;74.74
74661;SHT31;63191;39.566;2.654;2022-12-07T09:08:50;17.70;74.24
74661;SHT31;63191;39.566;2.654;2022-12-07T09:11:18;18.17;73.43
74661;SHT31;63191;39.566;2.654;2022-12-07T09:13:44;19.05;72.91
74661;SHT31;63191;39.566;2.654;2022-12-07T09:16:10;19.62;71.53
74661;SHT31;63191;39.566;2.654;2022-12-07T09:18:35;20.20;70.12
74661;SHT31;63191;39.566;2.654;2022-12-07T09:21:01;20.47;68.76
74661;SHT31;63191;39.566;2.654;2022-12-07T09:23:27;20.59;67.61
74661;SHT31;63191;39.566;2.654;2022-12-07T09:25:53;20.64;66.79
74661;SHT31;63191;39.566;2.654;2022-12-07T09:28:18;20.67;65.95
74661;SHT31;63191;39.566;2.654;2022-12-07T09:30:47;20.67;65.37
74661;SHT31;63191;39.566;2.654;2022-12-07T09:33:14;20.62;64.97
74661;SHT31;63191;39.566;2.654;2022-12-07T09:35:50;20.50;64.58
74661;SHT31;63191;39.566;2.654;2022-12-07T09:38:17;20.38;64.46
74661;SHT31;63191;39.566;2.654;2022-12-07T09:40:44;20.21;64.30
74661;SHT31;63191;39.566;2.654;2022-12-07T09:43:18;20.00;64.26
74661;SHT31;63191;39.566;2.654;2022-12-07T09:45:48;19.82;64.55
74661;SHT31;63191;39.566;2.654;2022-12-07T09:48:22;19.68;64.73
74661;SHT31;63191;39.566;2.654;2022-12-07T09:50:57;19.56;64.99
74661;SHT31;63191;39.566;2.654;2022-12-07T09:53:29;19.46;65.11
74661;SHT31;63191;39.566;2.654;2022-12-07T09:55:59;19.32;65.16
74661;SHT31;63191;39.566;2.654;2022-12-07T09:58:26;19.19;65.37
74661;SHT31;63191;39.566;2.654;2022-12-07T10:01:05;19.07;65.60
74661;SHT31;63191;39.566;2.654;2022-12-07T10:03:55;18.96;65.86
74661;SHT31;63191;39.566;2.654;2022-12-07T10:06:32;18.89;66.09
74661;SHT31;63191;39.566;2.654;2022-12-07T10:08:57;18.89;66.28
74661;SHT31;63191;39.566;2.654;2022-12-07T10:11:23;18.89;66.41
74661;SHT31;63191;39.566;2.654;2022-12-07T10:13:51;18.91;66.59
74661;SHT31;63191;39.566;2.654;2022-12-07T10:18:53;19.04;66.63
74661;SHT31;63191;39.566;2.654;2022-12-07T10:21:24;19.10;66.58
74661;SHT31;63191;39.566;2.654;2022-12-07T10:26:35;19.24;66.33
74661;SHT31;63191;39.566;2.654;2022-12-07T10:32:04;19.27;66.07
74661;SHT31;63191;39.566;2.654;2022-12-07T10:37:45;19.34;65.94
74661;SHT31;63191;39.566;2.654;2022-12-07T10:40:33;19.43;66.09
74661;SHT31;63191;39.566;2.654;2022-12-07T10:43:20;19.59;65.95
74661;SHT31;63191;39.566;2.654;2022-12-07T10:51:10;19.98;64.95
74661;SHT31;63191;39.566;2.654;2022-12-07T10:54:03;20.12;64.66
74661;SHT31;63191;39.566;2.654;2022-12-07T11:02:49;20.50;63.42
74661;SHT31;63191;39.566;2.654;2022-12-07T11:08:59;20.75;63.24
74661;SHT31;63191;39.566;2.654;2022-12-07T11:14:40;21.24;62.54
74661;SHT31;63191;39.566;2.654;2022-12-07T11:17:24;21.56;62.02
74661;SHT31;63191;39.566;2.654;2022-12-07T11:23:07;22.26;60.56
74661;SHT31;63191;39.566;2.654;2022-12-07T11:29:08;22.87;58.82
74661;SHT31;63191;39.566;2.654;2022-12-07T11:32:13;23.08;58.07
74661;SHT31;63191;39.566;2.654;2022-12-07T11:38:26;23.37;56.71
74661;SHT31;63191;39.566;2.654;2022-12-07T11:41:28;23.49;56.21
74661;SHT31;63191;39.566;2.654;2022-12-07T11:44:07;23.56;55.96
74661;SHT31;63191;39.566;2.654;2022-12-07T11:55:26;23.57;54.68
74661;SHT31;63191;39.566;2.654;2022-12-07T12:06:34;23.87;53.11
74661;SHT31;63191;39.566;2.654;2022-12-07T12:09:14;23.84;52.47
74661;SHT31;63191;39.566;2.654;2022-12-07T12:11:56;23.79;52.57
74661;SHT31;63191;39.566;2.654;2022-12-07T12:21:07;24.01;52.52
74661;SHT31;63191;39.566;2.654;2022-12-07T12:23:49;24.12;52.41
74661;SHT31;63191;39.566;2.654;2022-12-07T12:26:26;24.25;52.16
74661;SHT31;63191;39.566;2.654;2022-12-07T12:31:38;24.39;51.77
74661;SHT31;63191;39.566;2.654;2022-12-07T12:37:41;24.17;51.09
74661;SHT31;63191;39.566;2.654;2022-12-07T12:40:53;23.97;51.32
74661;SHT31;63191;39.566;2.654;2022-12-07T12:42:56;23.59;51.26
74661;SHT31;63191;39.566;2.654;2022-12-07T12:45:24;23.23;52.15
74661;SHT31;63191;39.566;2.654;2022-12-07T12:48:40;22.84;52.65
74661;SHT31;63191;39.566;2.654;2022-12-07T12:54:18;22.02;54.35
74661;SHT31;63191;39.566;2.654;2022-12-07T13:02:21;21.52;56.13
74661;SHT31;63191;39.566;2.654;2022-12-07T13:10:24;21.52;56.33
74661;SHT31;63191;39.566;2.654;2022-12-07T13:13:00;21.48;56.47
74661;SHT31;63191;39.566;2.654;2022-12-07T13:15:54;21.42;56.14
74661;SHT31;63191;39.566;2.654;2022-12-07T13:18:40;21.36;56.31
74661;SHT31;63191;39.566;2.654;2022-12-07T13:26:20;21.23;56.32
74661;SHT31;63191;39.566;2.654;2022-12-07T13:37:00;20.62;57.92
74661;SHT31;63191;39.566;2.654;2022-12-07T13:44:54;20.47;58.68
74661;SHT31;63191;39.566;2.654;2022-12-07T13:47:35;20.43;58.80
74661;SHT31;63191;39.566;2.654;2022-12-07T13:52:57;20.13;59.10
74661;SHT31;63191;39.566;2.654;2022-12-07T13:55:25;19.93;59.53
74661;SHT31;63191;39.566;2.654;2022-12-07T13:57:53;19.74;59.89
74661;SHT31;63191;39.566;2.654;2022-12-07T14:00:24;19.53;60.31
74661;SHT31;63191;39.566;2.654;2022-12-07T14:05:37;19.25;61.11
74661;SHT31;63191;39.566;2.654;2022-12-07T14:13:33;19.13;61.75
74661;SHT31;63191;39.566;2.654;2022-12-07T14:16:26;19.18;62.09
74661;SHT31;63191;39.566;2.654;2022-12-07T14:19:01;19.31;62.08
74661;SHT31;63191;39.566;2.654;2022-12-07T14:21:32;19.40;61.83
74661;SHT31;63191;39.566;2.654;2022-12-07T14:24:07;19.39;61.39
74661;SHT31;63191;39.566;2.654;2022-12-07T14:26:38;19.29;61.51
74661;SHT31;63191;39.566;2.654;2022-12-07T14:32:23;18.99;62.04
74661;SHT31;63191;39.566;2.654;2022-12-07T14:34:59;18.83;62.48
74661;SHT31;63191;39.566;2.654;2022-12-07T14:37:35;18.74;63.04
74661;SHT31;63191;39.566;2.654;2022-12-07T14:40:02;18.79;63.35
74661;SHT31;63191;39.566;2.654;2022-12-07T14:42:30;18.78;63.59
74661;SHT31;63191;39.566;2.654;2022-12-07T14:44:57;18.74;63.76
74661;SHT31;63191;39.566;2.654;2022-12-07T14:47:24;18.66;64.08
74661;SHT31;63191;39.566;2.654;2022-12-07T14:49:52;18.66;64.46
74661;SHT31;63191;39.566;2.654;2022-12-07T14:52:23;18.67;64.65
74661;SHT31;63191;39.566;2.654;2022-12-07T14:54:53;18.56;64.63
74661;SHT31;63191;39.566;2.654;2022-12-07T14:57:19;18.42;64.99
74661;SHT31;63191;39.566;2.654;2022-12-07T14:59:45;18.29;65.43
74661;SHT31;63191;39.566;2.654;2022-12-07T15:02:12;18.18;65.86
74661;SHT31;63191;39.566;2.654;2022-12-07T15:04:39;18.10;66.14
74661;SHT31;63191;39.566;2.654;2022-12-07T15:07:06;18.03;66.47
74661;SHT31;63191;39.566;2.654;2022-12-07T15:09:43;17.93;66.86
74661;SHT31;63191;39.566;2.654;2022-12-07T15:12:08;17.87;67.11
74661;SHT31;63191;39.566;2.654;2022-12-07T15:14:34;17.82;67.33
74661;SHT31;63191;39.566;2.654;2022-12-07T15:17:00;17.81;67.63
74661;SHT31;63191;39.566;2.654;2022-12-07T15:19:26;17.81;67.88
74661;SHT31;63191;39.566;2.654;2022-12-07T15:21:52;17.84;68.06
74661;SHT31;63191;39.566;2.654;2022-12-07T15:24:19;17.87;68.24
74661;SHT31;63191;39.566;2.654;2022-12-07T15:26:45;17.86;68.50
74661;SHT31;63191;39.566;2.654;2022-12-07T15:29:12;17.75;68.79
74661;SHT31;63191;39.566;2.654;2022-12-07T15:31:40;17.56;69.38
74661;SHT31;63191;39.566;2.654;2022-12-07T15:34:06;17.44;70.02
74661;SHT31;63191;39.566;2.654;2022-12-07T15:36:32;17.34;70.54
74661;SHT31;63191;39.566;2.654;2022-12-07T15:38:59;17.26;70.98
74661;SHT31;63191;39.566;2.654;2022-12-07T15:41:25;17.15;71.35
74661;SHT31;63191;39.566;2.654;2022-12-07T15:43:51;17.05;71.83
74661;SHT31;63191;39.566;2.654;2022-12-07T15:46:55;16.96;72.33
74661;SHT31;63191;39.566;2.654;2022-12-07T15:49:21;16.89;72.70
74661;SHT31;63191;39.566;2.654;2022-12-07T15:51:47;16.87;73.06
74661;SHT31;63191;39.566;2.654;2022-12-07T15:54:13;16.87;73.40
74661;SHT31;63191;39.566;2.654;2022-12-07T15:56:48;16.85;73.64
74661;SHT31;63191;39.566;2.654;2022-12-07T15:59:14;16.83;73.77
74661;SHT31;63191;39.566;2.654;2022-12-07T16:01:40;16.80;73.93
74661;SHT31;63191;39.566;2.654;2022-12-07T16:04:06;16.79;74.09
74661;SHT31;63191;39.566;2.654;2022-12-07T16:06:32;16.79;74.21
74661;SHT31;63191;39.566;2.654;2022-12-07T16:08:58;16.80;74.30
74661;SHT31;63191;39.566;2.654;2022-12-07T16:11:24;16.79;74.38
74661;SHT31;63191;39.566;2.654;2022-12-07T16:13:49;16.79;74.50
74661;SHT31;63191;39.566;2.654;2022-12-07T16:16:16;16.75;74.56
74661;SHT31;63191;39.566;2.654;2022-12-07T16:18:44;16.72;74.71
74661;SHT31;63191;39.566;2.654;2022-12-07T16:21:11;16.70;74.80
74661;SHT31;63191;39.566;2.654;2022-12-07T16:23:38;16.67;74.85
74661;SHT31;63191;39.566;2.654;2022-12-07T16:26:08;16.66;74.98
74661;SHT31;63191;39.566;2.654;2022-12-07T16:28:40;16.64;75.19
74661;SHT31;63191;39.566;2.654;2022-12-07T16:31:14;16.60;75.31
74661;SHT31;63191;39.566;2.654;2022-12-07T16:33:43;16.58;75.40
74661;SHT31;63191;39.566;2.654;2022-12-07T16:36:10;16.51;75.53
74661;SHT31;63191;39.566;2.654;2022-12-07T16:38:38;16.44;75.70
74661;SHT31;63191;39.566;2.654;2022-12-07T16:41:05;16.36;75.78
74661;SHT31;63191;39.566;2.654;2022-12-07T16:43:32;16.29;75.86
74661;SHT31;63191;39.566;2.654;2022-12-07T16:45:59;16.24;76.00
74661;SHT31;63191;39.566;2.654;2022-12-07T16:48:25;16.18;76.17
74661;SHT31;63191;39.566;2.654;2022-12-07T16:50:51;16.13;76.33
74661;SHT31;63191;39.566;2.654;2022-12-07T16:53:19;16.09;76.51
74661;SHT31;63191;39.566;2.654;2022-12-07T16:55:46;16.04;76.70
74661;SHT31;63191;39.566;2.654;2022-12-07T16:58:13;15.99;76.90
74661;SHT31;63191;39.566;2.654;2022-12-07T17:00:41;15.97;77.08
74661;SHT31;63191;39.566;2.654;2022-12-07T17:03:09;15.93;77.22
74661;SHT31;63191;39.566;2.654;2022-12-07T17:05:39;15.91;77.34
74661;SHT31;63191;39.566;2.654;2022-12-07T17:08:07;15.89;77.44
74661;SHT31;63191;39.566;2.654;2022-12-07T17:10:35;15.90;77.50
74661;SHT31;63191;39.566;2.654;2022-12-07T17:13:04;15.91;77.50
74661;SHT31;63191;39.566;2.654;2022-12-07T17:15:54;15.92;77.50
74661;SHT31;63191;39.566;2.654;2022-12-07T17:18:21;15.92;77.50
74661;SHT31;63191;39.566;2.654;2022-12-07T17:20:47;15.91;77.50
74661;SHT31;63191;39.566;2.654;2022-12-07T17:23:13;15.91;77.46
74661;SHT31;63191;39.566;2.654;2022-12-07T17:25:39;15.89;77.47
74661;SHT31;63191;39.566;2.654;2022-12-07T17:28:04;15.88;77.50
74661;SHT31;63191;39.566;2.654;2022-12-07T17:30:30;15.88;77.46
74661;SHT31;63191;39.566;2.654;2022-12-07T17:32:56;15.91;77.50
74661;SHT31;63191;39.566;2.654;2022-12-07T17:35:22;15.93;77.58
74661;SHT31;63191;39.566;2.654;2022-12-07T17:37:47;15.97;77.71
74661;SHT31;63191;39.566;2.654;2022-12-07T17:40:14;16.00;77.80
74661;SHT31;63191;39.566;2.654;2022-12-07T17:42:40;16.02;77.88
74661;SHT31;63191;39.566;2.654;2022-12-07T17:45:10;16.04;77.92
74661;SHT31;63191;39.566;2.654;2022-12-07T17:47:36;16.06;77.97
74661;SHT31;63191;39.566;2.654;2022-12-07T17:50:04;16.08;78.00
74661;SHT31;63191;39.566;2.654;2022-12-07T17:52:31;16.12;78.08
74661;SHT31;63191;39.566;2.654;2022-12-07T17:55:17;16.15;78.04
74661;SHT31;63191;39.566;2.654;2022-12-07T17:57:43;16.18;78.02
74661;SHT31;63191;39.566;2.654;2022-12-07T18:00:09;16.20;78.02
74661;SHT31;63191;39.566;2.654;2022-12-07T18:02:36;16.20;77.93
74661;SHT31;63191;39.566;2.654;2022-12-07T18:05:02;16.19;77.92
74661;SHT31;63191;39.566;2.654;2022-12-07T18:07:29;16.16;77.85
74661;SHT31;63191;39.566;2.654;2022-12-07T18:09:55;16.12;77.88
74661;SHT31;63191;39.566;2.654;2022-12-07T18:12:21;16.10;77.98
74661;SHT31;63191;39.566;2.654;2022-12-07T18:14:47;16.09;78.04
74661;SHT31;63191;39.566;2.654;2022-12-07T18:17:15;16.11;78.10